createdAt,value
2022-11-10T00:00:08.371Z,27.20
2022-11-10T00:02:53.569Z,24.43
2022-11-10T00:05:38.778Z,24.10
2022-11-10T00:08:24.115Z,20.77
2022-11-10T00:11:09.322Z,23.47
2022-11-10T00:14:13.159Z,21.27
2022-11-10T00:17:01.409Z,21.20
2022-11-10T00:19:46.577Z,20.87
2022-11-10T00:22:32.948Z,19.43
2022-11-10T00:25:18.313Z,20.10
2022-11-10T00:28:03.689Z,18.53
2022-11-10T00:30:48.960Z,20.97
2022-11-10T00:33:34.703Z,18.87
2022-11-10T00:39:22.844Z,22.03
2022-11-10T00:42:08.237Z,21.87
2022-11-10T00:44:53.448Z,18.23
2022-11-10T00:47:38.423Z,21.20
2022-11-10T00:50:23.829Z,24.10
2022-11-10T00:53:08.980Z,20.23
2022-11-10T00:55:54.351Z,21.50
2022-11-10T00:58:39.249Z,19.20
2022-11-10T01:01:25.088Z,18.77
2022-11-10T01:04:10.421Z,19.40
2022-11-10T01:06:55.657Z,21.87
2022-11-10T01:09:41.301Z,21.97
2022-11-10T01:12:29.129Z,20.63
2022-11-10T01:18:17.317Z,19.53
2022-11-10T01:21:02.546Z,21.47
2022-11-10T01:23:47.759Z,21.20
2022-11-10T01:29:36.021Z,20.97
2022-11-10T01:32:21.299Z,15.83
2022-11-10T01:35:06.679Z,18.97
2022-11-10T01:40:55.408Z,16.67
2022-11-10T01:43:40.836Z,19.63
2022-11-10T01:46:26.352Z,15.43
2022-11-10T01:49:11.677Z,16.20
2022-11-10T01:51:57.864Z,17.47
2022-11-10T01:54:47.066Z,17.47
2022-11-10T01:57:32.067Z,18.30
2022-11-10T02:00:18.090Z,18.07
2022-11-10T02:03:09.238Z,16.07
2022-11-10T02:05:54.468Z,15.67
2022-11-10T02:08:39.875Z,16.33
2022-11-10T02:11:25.137Z,16.67
2022-11-10T02:14:10.312Z,17.30
2022-11-10T02:16:55.758Z,17.07
2022-11-10T02:19:41.653Z,15.30
2022-11-10T02:22:26.926Z,16.57
2022-11-10T02:25:18.191Z,16.57
2022-11-10T02:28:03.242Z,16.70
2022-11-10T02:30:48.230Z,17.57
2022-11-10T02:33:33.412Z,16.63
2022-11-10T02:36:18.384Z,16.80
2022-11-10T02:39:03.985Z,17.43
2022-11-10T02:41:49.207Z,17.13
2022-11-10T02:44:34.363Z,16.80
2022-11-10T02:47:19.665Z,17.53
2022-11-10T02:53:07.986Z,16.53
2022-11-10T02:55:54.373Z,17.50
2022-11-10T02:58:39.791Z,18.93
2022-11-10T03:04:27.896Z,18.13
2022-11-10T03:07:13.251Z,18.50
2022-11-10T03:09:58.502Z,18.10
2022-11-10T03:15:49.819Z,15.90
2022-11-10T03:18:35.150Z,15.73
2022-11-10T03:21:20.288Z,19.13
2022-11-10T03:27:08.589Z,17.27
2022-11-10T03:29:53.797Z,17.30
2022-11-10T03:32:38.736Z,19.37
2022-11-10T03:35:24.198Z,18.27
2022-11-10T03:38:09.561Z,18.90
2022-11-10T03:43:57.870Z,17.63
2022-11-10T03:46:43.661Z,16.60
2022-11-10T03:49:28.803Z,19.37
2022-11-10T03:55:18.179Z,17.43
2022-11-10T03:58:03.927Z,15.53
2022-11-10T04:00:49.344Z,15.93
2022-11-10T04:03:34.556Z,15.80
2022-11-10T04:06:38.729Z,17.50
2022-11-10T04:12:45.724Z,19.30
2022-11-10T04:18:46.904Z,18.43
2022-11-10T04:24:35.167Z,16.77
2022-11-10T04:27:20.644Z,15.70
2022-11-10T04:30:06.385Z,16.77
2022-11-10T04:32:53.630Z,18.63
2022-11-10T04:35:39.033Z,15.43
2022-11-10T04:41:27.772Z,17.60
2022-11-10T04:47:16.367Z,15.63
2022-11-10T04:53:05.303Z,17.90
2022-11-10T04:55:50.608Z,17.30
2022-11-10T04:58:35.876Z,17.60
2022-11-10T05:01:22.127Z,19.93
2022-11-10T05:04:07.356Z,15.50
2022-11-10T05:06:54.091Z,17.30
2022-11-10T05:09:39.714Z,15.97
2022-11-10T05:12:24.909Z,15.27
2022-11-10T05:15:10.244Z,16.00
2022-11-10T05:17:55.672Z,20.47
2022-11-10T05:20:41.200Z,18.80
2022-11-10T05:23:54.110Z,16.53
2022-11-10T05:26:39.396Z,16.83
2022-11-10T05:29:24.541Z,17.63
2022-11-10T05:32:09.500Z,18.10
2022-11-10T05:37:57.737Z,14.60
2022-11-10T05:40:43.532Z,15.27
2022-11-10T05:43:29.155Z,19.30
2022-11-10T05:46:14.398Z,19.40
2022-11-10T05:48:59.604Z,17.23
2022-11-10T05:51:44.878Z,16.27
2022-11-10T05:54:30.415Z,18.00
2022-11-10T06:00:21.874Z,16.73
2022-11-10T06:06:12.743Z,13.93
2022-11-10T06:12:04.380Z,14.20
2022-11-10T06:14:49.815Z,15.57
2022-11-10T06:17:37.119Z,16.80
2022-11-10T06:20:22.846Z,15.53
2022-11-10T06:23:09.859Z,14.47
2022-11-10T06:25:55.310Z,15.43
2022-11-10T06:28:40.476Z,18.33
2022-11-10T06:34:28.455Z,16.30
2022-11-10T06:37:13.672Z,14.63
2022-11-10T06:39:58.829Z,17.47
2022-11-10T06:42:44.222Z,15.83
2022-11-10T06:45:29.267Z,13.93
2022-11-10T06:48:14.636Z,18.27
2022-11-10T06:51:00.458Z,11.57
2022-11-10T06:53:45.924Z,17.07
2022-11-10T06:56:31.358Z,15.50
2022-11-10T06:59:16.584Z,14.17
2022-11-10T07:02:01.944Z,13.50
2022-11-10T07:04:47.546Z,15.60
2022-11-10T07:07:33.141Z,16.47
2022-11-10T07:10:18.358Z,17.07
2022-11-10T07:13:04.254Z,14.93
2022-11-10T07:15:49.942Z,17.07
2022-11-10T07:18:35.935Z,13.77
2022-11-10T07:21:21.120Z,14.80
2022-11-10T07:24:06.687Z,13.57
2022-11-10T07:26:52.443Z,15.50
2022-11-10T07:29:38.337Z,12.73
2022-11-10T07:32:23.599Z,14.00
2022-11-10T07:35:09.061Z,12.83
2022-11-10T07:37:55.541Z,11.37
2022-11-10T07:40:40.564Z,10.63
2022-11-10T07:43:26.022Z,14.50
2022-11-10T07:46:11.607Z,9.97
2022-11-10T07:48:56.812Z,10.70
2022-11-10T07:51:45.404Z,10.83
2022-11-10T07:54:30.586Z,10.53
2022-11-10T07:57:15.858Z,10.70
2022-11-10T08:00:01.247Z,10.77
2022-11-10T08:02:46.962Z,10.17
2022-11-10T08:05:32.392Z,11.53
2022-11-10T08:08:17.577Z,10.27
2022-11-10T08:11:03.057Z,16.67
2022-11-10T08:13:48.949Z,12.03
2022-11-10T08:16:34.380Z,7.93
2022-11-10T08:19:19.739Z,9.47
2022-11-10T08:22:04.942Z,9.27
2022-11-10T08:24:50.497Z,8.63
2022-11-10T08:27:35.714Z,9.27
2022-11-10T08:30:21.005Z,6.63
2022-11-10T08:33:06.604Z,10.87
2022-11-10T08:35:52.227Z,9.27
2022-11-10T08:38:37.741Z,8.57
2022-11-10T08:41:23.187Z,12.87
2022-11-10T08:44:11.019Z,6.97
2022-11-10T08:46:56.597Z,8.67
2022-11-10T08:49:41.860Z,9.87
2022-11-10T08:52:27.131Z,6.90
2022-11-10T08:55:12.973Z,8.43
2022-11-10T08:58:02.109Z,9.77
2022-11-10T09:00:47.841Z,8.60
2022-11-10T09:03:33.622Z,5.33
2022-11-10T09:06:18.933Z,6.00
2022-11-10T09:09:04.237Z,7.70
2022-11-10T09:11:50.091Z,6.90
2022-11-10T09:14:35.535Z,4.93
2022-11-10T09:17:22.163Z,6.60
2022-11-10T09:20:08.128Z,9.57
2022-11-10T09:22:54.068Z,7.37
2022-11-10T09:25:39.690Z,6.87
2022-11-10T09:28:25.121Z,6.33
2022-11-10T09:31:10.545Z,8.83
2022-11-10T09:33:55.877Z,9.50
2022-11-10T09:36:41.348Z,5.97
2022-11-10T09:39:26.699Z,5.87
2022-11-10T09:42:30.602Z,8.43
2022-11-10T09:45:18.576Z,6.40
2022-11-10T09:48:27.320Z,4.90
2022-11-10T09:51:26.768Z,5.93
2022-11-10T09:54:18.483Z,9.83
2022-11-10T09:57:05.042Z,8.87
2022-11-10T09:59:50.076Z,7.40
2022-11-10T10:02:40.136Z,12.97
2022-11-10T10:05:44.408Z,6.13
2022-11-10T10:12:03.923Z,6.63
2022-11-10T10:18:07.861Z,6.50
2022-11-10T10:20:59.373Z,7.67
2022-11-10T10:24:09.348Z,5.20
2022-11-10T10:26:57.323Z,4.37
2022-11-10T10:29:46.915Z,4.13
2022-11-10T10:32:32.429Z,3.53
2022-11-10T10:35:18.829Z,6.07
2022-11-10T10:38:04.887Z,3.10
2022-11-10T10:40:52.341Z,3.13
2022-11-10T10:46:59.513Z,3.90
2022-11-10T10:49:45.212Z,4.10
2022-11-10T10:52:30.630Z,4.27
2022-11-10T10:55:16.047Z,2.77
2022-11-10T10:58:02.194Z,2.93
2022-11-10T11:00:48.388Z,4.93
2022-11-10T11:03:43.728Z,3.57
2022-11-10T11:06:33.111Z,6.00
2022-11-10T11:09:20.125Z,3.50
2022-11-10T11:12:25.373Z,5.03
2022-11-10T11:15:21.077Z,3.97
2022-11-10T11:18:16.306Z,7.37
2022-11-10T11:21:03.930Z,7.63
2022-11-10T11:23:49.072Z,5.87
2022-11-10T11:26:47.375Z,4.33
2022-11-10T11:29:37.512Z,8.13
2022-11-10T11:32:29.099Z,8.63
2022-11-10T11:35:33.371Z,5.60
2022-11-10T11:38:37.945Z,5.07
2022-11-10T11:41:42.242Z,5.27
2022-11-10T11:44:46.732Z,5.60
2022-11-10T11:47:41.426Z,7.97
2022-11-10T11:50:28.565Z,5.20
2022-11-10T11:53:23.480Z,7.23
2022-11-10T11:56:14.976Z,7.20
2022-11-10T11:59:14.097Z,5.67
2022-11-10T12:02:03.850Z,10.40
2022-11-10T12:04:49.227Z,13.17
2022-11-10T12:07:45.366Z,5.20
2022-11-10T12:10:41.908Z,7.40
2022-11-10T12:13:44.392Z,6.77
2022-11-10T12:16:30.786Z,7.87
2022-11-10T12:19:24.996Z,7.77
2022-11-10T12:25:17.967Z,7.37
2022-11-10T12:31:10.589Z,8.20
2022-11-10T12:34:04.360Z,10.53
2022-11-10T12:36:50.014Z,6.00
2022-11-10T12:43:01.796Z,9.23
2022-11-10T12:48:57.861Z,7.50
2022-11-10T12:55:02.470Z,4.10
2022-11-10T12:57:47.860Z,7.67
2022-11-10T13:00:37.678Z,12.07
2022-11-10T13:06:37.165Z,8.57
2022-11-10T13:09:25.817Z,11.57
2022-11-10T13:12:11.265Z,12.00
2022-11-10T13:14:56.846Z,9.57
2022-11-10T13:17:42.500Z,7.60
2022-11-10T13:20:47.382Z,7.23
2022-11-10T13:23:33.668Z,8.47
2022-11-10T13:26:37.679Z,7.43
2022-11-10T13:29:36.305Z,6.37
2022-11-10T13:32:24.961Z,7.47
2022-11-10T13:35:28.801Z,9.23
2022-11-10T13:38:32.706Z,12.00
2022-11-10T13:41:19.706Z,11.70
2022-11-10T13:44:19.828Z,8.17
2022-11-10T13:47:08.240Z,10.83
2022-11-10T13:49:59.741Z,9.93
2022-11-10T13:52:48.541Z,9.90
2022-11-10T13:55:34.154Z,9.37
2022-11-10T13:58:45.834Z,7.30
2022-11-10T14:01:31.445Z,6.93
2022-11-10T14:04:35.743Z,11.23
2022-11-10T14:07:21.494Z,8.63
2022-11-10T14:10:20.330Z,8.20
2022-11-10T14:13:07.263Z,8.60
2022-11-10T14:15:54.220Z,5.37
2022-11-10T14:21:43.650Z,6.07
2022-11-10T14:27:34.025Z,10.40
2022-11-10T14:33:29.216Z,10.87
2022-11-10T14:36:14.539Z,8.97
2022-11-10T14:38:59.853Z,8.23
2022-11-10T14:41:48.262Z,8.77
2022-11-10T14:44:34.159Z,10.03
2022-11-10T14:47:22.487Z,10.00
2022-11-10T14:50:08.010Z,11.33
2022-11-10T14:52:57.727Z,10.03
2022-11-10T14:55:43.620Z,14.70
2022-11-10T14:58:32.092Z,15.60
2022-11-10T15:01:24.723Z,9.07
2022-11-10T15:04:10.713Z,12.83
2022-11-10T15:06:56.928Z,11.40
2022-11-10T15:09:42.425Z,12.03
2022-11-10T15:12:29.517Z,13.63
2022-11-10T15:15:16.465Z,9.17
2022-11-10T15:18:01.860Z,8.83
2022-11-10T15:20:55.757Z,9.30
2022-11-10T15:23:41.215Z,12.07
2022-11-10T15:26:26.879Z,9.53
2022-11-10T15:29:20.631Z,9.73
2022-11-10T15:32:13.352Z,11.33
2022-11-10T15:35:08.942Z,8.67
2022-11-10T15:37:58.388Z,10.50
2022-11-10T15:40:44.981Z,14.93
2022-11-10T15:43:30.558Z,10.40
2022-11-10T15:46:18.223Z,11.53
2022-11-10T15:49:04.311Z,12.80
2022-11-10T15:51:50.430Z,9.27
2022-11-10T15:54:35.805Z,15.10
2022-11-10T15:57:21.193Z,18.07
2022-11-10T16:00:09.998Z,18.07
2022-11-10T16:02:55.191Z,12.70
2022-11-10T16:08:44.187Z,12.00
2022-11-10T16:11:29.996Z,9.07
2022-11-10T16:14:16.098Z,11.67
2022-11-10T16:17:01.578Z,10.33
2022-11-10T16:19:46.944Z,14.83
2022-11-10T16:22:32.266Z,12.50
2022-11-10T16:25:23.838Z,11.60
2022-11-10T16:28:13.832Z,11.70
2022-11-10T16:30:59.369Z,17.60
2022-11-10T16:33:44.911Z,16.30
2022-11-10T16:36:31.504Z,14.17
2022-11-10T16:39:17.111Z,14.63
2022-11-10T16:42:02.174Z,14.97
2022-11-10T16:44:48.167Z,12.73
2022-11-10T16:47:33.712Z,17.47
2022-11-10T16:50:22.419Z,17.70
2022-11-10T16:53:11.580Z,11.93
2022-11-10T16:55:57.693Z,17.33
2022-11-10T16:58:42.923Z,13.37
2022-11-10T17:01:28.771Z,15.77
2022-11-10T17:04:14.428Z,17.70
2022-11-10T17:07:00.283Z,17.40
2022-11-10T17:09:45.935Z,23.37
2022-11-10T17:12:32.794Z,20.10
2022-11-10T17:15:18.104Z,18.97
2022-11-10T17:21:06.611Z,17.47
2022-11-10T17:23:52.170Z,18.97
2022-11-10T17:26:37.384Z,19.97
2022-11-10T17:32:57.565Z,29.70
2022-11-10T17:35:35.033Z,26.57
2022-11-10T17:38:25.415Z,25.50
2022-11-10T17:44:20.961Z,24.17
2022-11-10T17:47:06.280Z,27.83
2022-11-10T17:49:51.923Z,35.53
2022-11-10T17:52:37.407Z,33.60
2022-11-10T17:55:23.481Z,30.90
2022-11-10T17:58:09.501Z,29.93
2022-11-10T18:00:55.145Z,28.20
2022-11-10T18:03:40.512Z,26.07
2022-11-10T18:06:25.803Z,24.67
2022-11-10T18:09:11.296Z,23.83
2022-11-10T18:11:57.088Z,23.30
2022-11-10T18:14:42.354Z,22.40
2022-11-10T18:17:27.737Z,25.37
2022-11-10T18:20:14.409Z,33.37
2022-11-10T18:23:00.279Z,23.30
2022-11-10T18:25:45.803Z,25.30
2022-11-10T18:28:30.978Z,22.20
2022-11-10T18:31:18.463Z,22.87
2022-11-10T18:34:03.541Z,23.53
2022-11-10T18:36:49.079Z,20.37
2022-11-10T18:39:34.636Z,17.20
2022-11-10T18:42:19.986Z,20.37
2022-11-10T18:45:05.866Z,23.17
2022-11-10T18:47:51.236Z,17.60
2022-11-10T18:50:40.736Z,20.93
2022-11-10T18:53:26.345Z,23.30
2022-11-10T18:56:11.950Z,17.63
2022-11-10T18:58:57.891Z,16.07
2022-11-10T19:01:43.676Z,17.33
2022-11-10T19:04:29.456Z,16.03
2022-11-10T19:07:14.809Z,19.37
2022-11-10T19:10:01.530Z,18.63
2022-11-10T19:12:47.481Z,20.47
2022-11-10T19:15:34.240Z,16.70
2022-11-10T19:18:20.057Z,19.43
2022-11-10T19:21:09.186Z,14.83
2022-11-10T19:23:55.652Z,17.30
2022-11-10T19:26:41.611Z,16.80
2022-11-10T19:29:27.261Z,20.57
2022-11-10T19:32:13.058Z,16.73
2022-11-10T19:34:58.669Z,15.67
2022-11-10T19:37:44.573Z,20.10
2022-11-10T19:40:30.333Z,17.17
2022-11-10T19:43:15.828Z,16.93
2022-11-10T19:46:01.665Z,15.63
2022-11-10T19:48:49.183Z,16.90
2022-11-10T19:51:34.480Z,21.93
2022-11-10T19:54:19.948Z,21.07
2022-11-10T19:57:06.583Z,25.07
2022-11-10T19:59:52.200Z,22.23
2022-11-10T20:02:45.165Z,20.77
2022-11-10T20:08:36.674Z,18.20
2022-11-10T20:11:22.610Z,15.07
2022-11-10T20:14:08.240Z,17.30
2022-11-10T20:16:53.572Z,17.70
2022-11-10T20:19:41.077Z,13.20
2022-11-10T20:22:27.226Z,17.70
2022-11-10T20:25:12.779Z,18.60
2022-11-10T20:28:06.394Z,20.00
2022-11-10T20:30:51.714Z,18.53
2022-11-10T20:33:37.225Z,16.67
2022-11-10T20:36:23.809Z,19.93
2022-11-10T20:39:09.128Z,21.47
2022-11-10T20:41:55.929Z,16.43
2022-11-10T20:44:41.587Z,21.17
2022-11-10T20:47:28.443Z,20.73
2022-11-10T20:50:16.402Z,20.57
2022-11-10T20:53:06.000Z,18.03
2022-11-10T20:56:02.159Z,18.57
2022-11-10T20:58:47.802Z,16.43
2022-11-10T21:01:33.787Z,18.93
2022-11-10T21:04:19.061Z,16.90
2022-11-10T21:07:04.625Z,13.33
2022-11-10T21:09:50.232Z,17.80
2022-11-10T21:12:51.109Z,17.27
2022-11-10T21:15:39.611Z,19.50
2022-11-10T21:18:26.007Z,20.83
2022-11-10T21:21:21.783Z,20.87
2022-11-10T21:24:07.529Z,18.60
2022-11-10T21:26:53.830Z,20.03
2022-11-10T21:29:39.959Z,15.83
2022-11-10T21:32:25.937Z,16.63
2022-11-10T21:35:12.710Z,20.53
2022-11-10T21:37:59.051Z,17.53
2022-11-10T21:40:45.325Z,17.73
2022-11-10T21:43:30.698Z,20.13
2022-11-10T21:46:15.905Z,22.80
2022-11-10T21:49:07.703Z,17.43
2022-11-10T21:51:54.548Z,20.47
2022-11-10T21:54:43.405Z,20.87
2022-11-10T21:57:28.769Z,19.37
2022-11-10T22:00:15.632Z,17.63
2022-11-10T22:03:01.599Z,20.80
2022-11-10T22:05:47.148Z,18.67
2022-11-10T22:08:32.986Z,14.97
2022-11-10T22:11:37.686Z,16.53
2022-11-10T22:14:41.946Z,16.03
2022-11-10T22:17:46.241Z,15.27
2022-11-10T22:20:32.257Z,20.57
2022-11-10T22:23:17.755Z,20.53
2022-11-10T22:26:03.392Z,16.73
2022-11-10T22:28:49.089Z,17.37
2022-11-10T22:31:34.574Z,17.13
2022-11-10T22:34:20.229Z,14.47
2022-11-10T22:37:05.812Z,17.43
2022-11-10T22:40:09.645Z,18.07
2022-11-10T22:43:13.675Z,12.77
2022-11-10T22:46:01.805Z,17.87
2022-11-10T22:48:47.861Z,19.20
2022-11-10T22:51:33.163Z,17.43
2022-11-10T22:54:20.012Z,16.53
2022-11-10T22:57:05.383Z,16.27
2022-11-10T23:02:53.806Z,18.77
2022-11-10T23:05:39.443Z,18.70
2022-11-10T23:08:25.354Z,20.10
2022-11-10T23:11:11.944Z,18.03
2022-11-10T23:13:57.284Z,15.67
2022-11-10T23:16:42.557Z,19.13
2022-11-10T23:19:27.874Z,17.13
2022-11-10T23:25:16.067Z,23.27
2022-11-10T23:28:01.241Z,16.43
2022-11-10T23:30:46.510Z,17.50
2022-11-10T23:36:35.081Z,16.80
2022-11-10T23:39:20.297Z,15.93
2022-11-10T23:42:05.652Z,18.07
2022-11-10T23:47:54.020Z,19.77
2022-11-10T23:50:39.981Z,15.80
2022-11-10T23:53:25.534Z,20.97
2022-11-10T23:59:14.702Z,17.60
